Who's Online

We have 5 guests online

Aviation WX

[source: ADDS]
METAR
KIAD 242252Z 19003KT 10SM FEW060 SCT200 24/13 A3024 RMK AO2 SLP240 T02440128 $ =
TAF
KIAD 242053Z 2421/2524 24005KT P6SM FEW060 SCT200 FM250000 19005KT P6SM BKN080 FM250700 19005KT P6SM SCT150 FM251300 20009KT P6SM SCT250 FM251600 20011G22KT P6SM FEW250 =
SR / SS: 23:34 / 14:02 UTC (Washington-Dulles 2015-05-24)

JoomlaWatch Agent

Home Products and Services

This section describes Multilink Systems products and services

 

 

Under construction Please Standby